Observations for GUERNSEY AIRPORT, United Kingdom (EGJB)

EGJB 231120Z 23017KT 2000 -RADZ VCFG FEW000 BKN001 15/15 Q1019  
EGJB 231050Z 23018KT 7000 -DZ FEW001 SCT002 BKN003 15/14 Q1019  
EGJB 231020Z 23018KT 6000 -DZ VCFG FEW000 SCT001 BKN002 14/14 Q1019 
EGJB 230950Z 23017KT 2000 -RADZ VCFG FEW000 BKN001 14/14 Q1019  
EGJB 230920Z 22018KT 2000 -RADZ VCFG FEW000 BKN001 14/14 Q1019  
EGJB 230850Z 22016KT 4000 -DZ BR FEW001 BKN002 14/14 Q1020  
EGJB 230820Z 22017KT 3000 -DZ BR FEW001 SCT002 BKN003 14/14 Q1020   
EGJB 230750Z 21016KT 8000 -DZ FEW002 BKN003 14/13 Q1020 
EGJB 230720Z 21015KT 4000 -DZ FEW002 BKN003 13/13 Q1020 
EGJB 230650Z 21017KT 6000 -DZ FEW002 SCT003 BKN004 13/13 Q1020  
EGJB 230620Z 22017KT 4000 -DZ SCT002 BKN003 13/13 Q1020 
EGJB 230550Z 22015KT 5000 -DZ SCT002 BKN004 13/13 Q1020 REDZ
EGJB 230520Z 22013KT 9999 -DZ FEW003 BKN005 13/12 Q1020 
EGJB 230450Z 24018KT 6000 -RADZ SCT006 BKN010 13/12 Q1020   
EGJB 230420Z 23015G25KT 9999 -RADZ FEW006 BKN009 13/13 Q1020
EGJB 230350Z 23014KT 9999 -RADZ FEW006 BKN010 13/12 Q1020 REDZ  
EGJB 230320Z 23015KT 6000 DZRA FEW006 BKN010 BKN030 13/12 Q1020 
EGJB 230250Z 23014KT 9999 -RADZ BKN010 BKN032 13/12 Q1021   
EGJB 221950Z 26015KT 9999 FEW018 BKN043 13/09 Q1022 
EGJB 221920Z 27016KT 9999 VCSH FEW018 BKN045 13/09 Q1022
EGJB 221850Z 27016KT 9999 VCSH FEW020 BKN045 12/08 Q1022
EGJB 221820Z 27019KT 9999 -SHRA SCT020 BKN042 12/08 Q1022   
EGJB 221750Z 28015KT 9999 VCSH FEW020 BKN045 13/08 Q1021
EGJB 221720Z 29016KT 9999 VCSH FEW025 BKN045 12/08 Q1021
EGJB 221650Z 27018KT 9999 FEW025 BKN045 13/07 Q1021 
EGJB 221620Z 27021KT 9999 VCSH FEW025 BKN045 13/08 Q1021
EGJB 221550Z 28021KT 9999 VCSH SCT025 BKN045 13/06 Q1021
EGJB 221520Z 27019KT 9999 VCSH SCT025 BKN045 13/08 Q1021
EGJB 221450Z 27021KT 9999 SCT024 SCT045 13/08 Q1021 
EGJB 221420Z 27020KT 9999 SCT024 13/07 Q1021
EGJB 221350Z 28022KT 9999 VCSH SCT024 14/08 Q1021   
EGJB 221320Z 28024G35KT 9999 SCT024 13/08 Q1020 
EGJB 221250Z 27025KT 9999 VCSH SCT024 13/07 Q1020   
EGJB 221220Z 28024KT 9999 VCSH SCT024TCU 13/07 Q1020
EGJB 221150Z 28022KT 9999 VCSH BKN027 13/08 Q1020   
EGJB 221120Z 28020G30KT 9999 SCT028 13/07 Q1020 
EGJB 221050Z 28018KT 9999 BKN026 13/07 Q1020